createdAt,value
2023-04-15T00:02:23.827Z,99578.38
2023-04-15T00:05:25.896Z,99577.91
2023-04-15T00:08:29.878Z,99572.03
2023-04-15T00:11:31.669Z,99572.25
2023-04-15T00:14:35.866Z,99570.78
2023-04-15T00:17:39.688Z,99578.25
2023-04-15T00:20:41.581Z,99576.47
2023-04-15T00:24:05.334Z,99580.63
2023-04-15T00:27:07.161Z,99577.25
2023-04-15T00:30:09.136Z,99573.59
2023-04-15T00:33:10.867Z,99571.38
2023-04-15T00:36:12.641Z,99569.56
2023-04-15T00:39:16.231Z,99573.00
2023-04-15T00:42:19.663Z,99568.50
2023-04-15T00:45:21.253Z,99563.31
2023-04-15T00:48:23.674Z,99564.44
2023-04-15T00:51:26.003Z,99572.50
2023-04-15T00:54:27.531Z,99566.94
2023-04-15T00:57:30.044Z,99568.16
2023-04-15T01:00:32.581Z,99567.31
2023-04-15T01:03:34.621Z,99562.38
2023-04-15T01:06:36.240Z,99568.84
2023-04-15T01:09:38.950Z,99565.31
2023-04-15T01:12:40.862Z,99568.97
2023-04-15T01:15:43.492Z,99565.53
2023-04-15T01:18:45.844Z,99557.34
2023-04-15T01:22:08.851Z,99564.19
2023-04-15T01:25:18.493Z,99566.09
2023-04-15T01:28:20.421Z,99567.09
2023-04-15T01:31:22.902Z,99569.72
2023-04-15T01:34:25.245Z,99557.53
2023-04-15T01:37:29.455Z,99561.97
2023-04-15T01:40:31.359Z,99564.66
2023-04-15T01:43:36.261Z,99570.81
2023-04-15T01:46:38.178Z,99566.75
2023-04-15T01:49:40.048Z,99565.97
2023-04-15T01:52:42.350Z,99569.38
2023-04-15T01:55:44.223Z,99576.31
2023-04-15T01:58:49.538Z,99571.38
2023-04-15T02:01:52.293Z,99565.19
2023-04-15T02:04:54.663Z,99565.06
2023-04-15T02:07:56.444Z,99563.84
2023-04-15T02:10:58.476Z,99568.97
2023-04-15T02:14:00.423Z,99565.47
2023-04-15T02:17:07.185Z,99567.19
2023-04-15T02:20:09.799Z,99575.75
2023-04-15T02:23:14.326Z,99572.41
2023-04-15T02:26:18.715Z,99569.66
2023-04-15T02:29:20.487Z,99568.56
2023-04-15T02:32:24.346Z,99565.06
2023-04-15T02:35:29.169Z,99564.44
2023-04-15T02:38:32.268Z,99565.75
2023-04-15T02:41:34.767Z,99568.63
2023-04-15T02:44:38.149Z,99567.75
2023-04-15T02:47:41.500Z,99572.19
2023-04-15T02:50:44.185Z,99572.31
2023-04-15T02:53:49.351Z,99564.72
2023-04-15T02:56:55.113Z,99571.81
2023-04-15T02:59:57.733Z,99566.81
2023-04-15T03:03:04.706Z,99567.75
2023-04-15T03:06:07.334Z,99572.84
2023-04-15T03:09:08.932Z,99579.78
2023-04-15T03:12:12.160Z,99576.31
2023-04-15T03:15:13.967Z,99577.06
2023-04-15T03:18:19.693Z,99575.34
2023-04-15T03:21:24.582Z,99570.84
2023-04-15T03:24:46.886Z,99577.13
2023-04-15T03:27:48.801Z,99577.41
2023-04-15T03:30:51.767Z,99579.44
2023-04-15T03:33:55.999Z,99572.59
2023-04-15T03:36:58.533Z,99572.81
2023-04-15T03:40:00.472Z,99576.22
2023-04-15T03:43:02.051Z,99577.78
2023-04-15T03:46:04.361Z,99574.22
2023-04-15T03:49:07.238Z,99584.75
2023-04-15T03:52:09.438Z,99581.59
2023-04-15T03:55:10.894Z,99577.34
2023-04-15T03:58:15.763Z,99574.59
2023-04-15T04:01:17.311Z,99570.78
2023-04-15T04:04:19.676Z,99575.06
2023-04-15T04:07:23.674Z,99581.28
2023-04-15T04:10:27.026Z,99583.75
2023-04-15T04:13:28.825Z,99582.78
2023-04-15T04:16:31.108Z,99587.94
2023-04-15T04:19:33.544Z,99594.75
2023-04-15T04:22:42.098Z,99588.53
2023-04-15T04:25:44.332Z,99590.56
2023-04-15T04:28:46.006Z,99585.50
2023-04-15T04:31:48.694Z,99589.97
2023-04-15T04:34:50.526Z,99600.56
2023-04-15T04:37:52.755Z,99599.66
2023-04-15T04:40:54.124Z,99598.97
2023-04-15T04:43:55.911Z,99597.19
2023-04-15T04:46:57.714Z,99600.56
2023-04-15T04:49:59.541Z,99601.41
2023-04-15T04:53:01.693Z,99602.13
2023-04-15T04:56:04.005Z,99595.91
2023-04-15T04:59:06.490Z,99606.53
2023-04-15T05:02:08.396Z,99604.78
2023-04-15T05:05:11.675Z,99605.53
2023-04-15T05:08:13.540Z,99607.41
2023-04-15T05:11:14.954Z,99614.44
2023-04-15T05:14:39.766Z,99611.72
2023-04-15T05:17:41.657Z,99611.06
2023-04-15T05:20:43.484Z,99608.78
2023-04-15T05:23:45.372Z,99614.88
2023-04-15T05:26:47.208Z,99612.94
2023-04-15T05:29:49.061Z,99617.38
2023-04-15T05:32:50.967Z,99622.75
2023-04-15T05:35:52.965Z,99622.81
2023-04-15T05:38:54.750Z,99626.44
2023-04-15T05:41:57.542Z,99628.28
2023-04-15T05:45:02.507Z,99629.75
2023-04-15T05:48:04.649Z,99624.38
2023-04-15T05:51:06.529Z,99619.00
2023-04-15T05:54:08.501Z,99627.34
2023-04-15T05:57:10.327Z,99628.91
2023-04-15T06:00:13.498Z,99634.84
2023-04-15T06:03:15.967Z,99638.94
2023-04-15T06:06:17.802Z,99638.97
2023-04-15T06:09:19.572Z,99634.69
2023-04-15T06:12:23.750Z,99632.75
2023-04-15T06:15:25.975Z,99645.59
2023-04-15T06:18:27.752Z,99647.06
2023-04-15T06:21:29.875Z,99644.94
2023-04-15T06:24:33.019Z,99651.75
2023-04-15T06:27:34.861Z,99655.72
2023-04-15T06:30:36.815Z,99654.56
2023-04-15T06:33:38.255Z,99648.75
2023-04-15T06:36:39.652Z,99653.38
2023-04-15T06:39:41.018Z,99648.72
2023-04-15T06:42:42.897Z,99649.03
2023-04-15T06:45:44.776Z,99647.59
2023-04-15T06:48:47.357Z,99646.19
2023-04-15T06:51:49.180Z,99652.22
2023-04-15T06:54:51.124Z,99645.41
2023-04-15T06:57:53.328Z,99650.16
2023-04-15T07:00:54.784Z,99645.69
2023-04-15T07:03:57.315Z,99641.63
2023-04-15T07:07:02.406Z,99638.03
2023-04-15T07:10:05.492Z,99637.50
2023-04-15T07:13:09.156Z,99638.88
2023-04-15T07:16:10.604Z,99635.97
2023-04-15T07:19:12.073Z,99629.31
2023-04-15T07:22:13.995Z,99625.03
2023-04-15T07:25:15.911Z,99619.31
2023-04-15T07:28:17.865Z,99624.78
2023-04-15T07:31:19.724Z,99619.09
2023-04-15T07:34:21.201Z,99630.63
2023-04-15T07:37:23.236Z,99633.13
2023-04-15T07:40:25.121Z,99635.78
2023-04-15T07:43:26.964Z,99628.47
2023-04-15T07:46:28.976Z,99625.66
2023-04-15T07:49:30.772Z,99627.63
2023-04-15T07:52:38.997Z,99629.47
2023-04-15T07:55:40.535Z,99624.47
2023-04-15T07:58:42.785Z,99626.81
2023-04-15T08:01:45.190Z,99628.31
2023-04-15T08:04:48.670Z,99627.28
2023-04-15T08:07:50.990Z,99626.22
2023-04-15T08:10:52.977Z,99627.94
2023-04-15T08:13:54.853Z,99623.09
2023-04-15T08:16:56.313Z,99626.38
2023-04-15T08:19:58.229Z,99622.53
2023-04-15T08:23:00.135Z,99621.81
2023-04-15T08:26:02.174Z,99628.84
2023-04-15T08:29:04.310Z,99635.44
2023-04-15T08:32:07.143Z,99636.06
2023-04-15T08:35:09.120Z,99635.53
2023-04-15T08:41:57.638Z,99638.09
2023-04-15T08:45:04.655Z,99637.66
2023-04-15T08:48:09.764Z,99635.22
2023-04-15T08:51:15.923Z,99646.03
2023-04-15T08:54:18.771Z,99641.09
2023-04-15T08:57:21.320Z,99630.38
2023-04-15T09:00:23.365Z,99638.00
2023-04-15T09:03:26.626Z,99636.41
2023-04-15T09:06:28.518Z,99640.03
2023-04-15T09:09:30.427Z,99646.16
2023-04-15T09:12:35.445Z,99647.38
2023-04-15T09:15:38.944Z,99648.09
2023-04-15T09:18:43.313Z,99642.81
2023-04-15T09:21:47.625Z,99637.94
2023-04-15T09:24:49.509Z,99641.09
2023-04-15T09:27:55.428Z,99650.72
2023-04-15T09:31:01.694Z,99648.34
2023-04-15T09:34:03.949Z,99647.81
2023-04-15T09:37:07.595Z,99652.44
2023-04-15T09:40:10.167Z,99660.88
2023-04-15T09:43:13.934Z,99665.09
2023-04-15T09:46:15.426Z,99662.19
2023-04-15T09:49:17.863Z,99674.19
2023-04-15T09:52:43.475Z,99671.81
2023-04-15T09:55:49.677Z,99677.44
2023-04-15T09:58:56.579Z,99674.81
2023-04-15T10:01:58.595Z,99677.81
2023-04-15T10:05:02.400Z,99675.75
2023-04-15T10:08:04.742Z,99682.22
2023-04-15T10:11:07.857Z,99683.88
2023-04-15T10:14:10.963Z,99670.97
2023-04-15T10:17:16.521Z,99677.19
2023-04-15T10:20:19.662Z,99679.63
2023-04-15T10:23:23.511Z,99682.84
2023-04-15T10:26:25.213Z,99680.94
2023-04-15T10:29:29.968Z,99689.16
2023-04-15T10:32:32.077Z,99681.34
2023-04-15T10:35:34.503Z,99681.19
2023-04-15T10:38:46.679Z,99683.47
2023-04-15T10:42:07.681Z,99699.50
2023-04-15T10:45:17.393Z,99698.25
2023-04-15T10:48:19.657Z,99699.78
2023-04-15T10:51:30.186Z,99706.66
2023-04-15T10:54:34.388Z,99701.28
2023-04-15T10:57:39.237Z,99708.41
2023-04-15T11:00:41.514Z,99703.00
2023-04-15T11:03:43.654Z,99704.63
2023-04-15T11:06:46.140Z,99711.06
2023-04-15T11:09:47.910Z,99718.16
2023-04-15T11:13:04.178Z,99714.38
2023-04-15T11:16:06.623Z,99723.34
2023-04-15T11:19:08.070Z,99719.94
2023-04-15T11:22:10.575Z,99706.69
2023-04-15T11:25:25.112Z,99710.47
2023-04-15T11:28:28.455Z,99716.13
2023-04-15T11:31:30.170Z,99720.84
2023-04-15T11:34:53.529Z,99728.28
2023-04-15T11:37:55.718Z,99729.63
2023-04-15T11:40:57.608Z,99731.31
2023-04-15T11:44:02.050Z,99732.75
2023-04-15T11:47:24.884Z,99738.63
2023-04-15T11:50:26.294Z,99742.03
2023-04-15T11:53:45.893Z,99746.94
2023-04-15T11:56:52.800Z,99746.84
2023-04-15T11:59:55.398Z,99748.94
2023-04-15T12:03:40.690Z,99753.50
2023-04-15T12:06:42.474Z,99758.97
2023-04-15T12:09:55.013Z,99763.09
2023-04-15T12:12:56.908Z,99764.06
2023-04-15T12:15:58.829Z,99767.94
2023-04-15T12:19:04.261Z,99773.91
2023-04-15T12:22:10.800Z,99777.41
2023-04-15T12:25:35.388Z,99774.66
2023-04-15T12:28:37.168Z,99781.88
2023-04-15T12:31:50.594Z,99792.97
2023-04-15T12:34:54.531Z,99797.34
2023-04-15T12:37:56.273Z,99800.44
2023-04-15T12:40:58.517Z,99801.38
2023-04-15T12:44:00.767Z,99798.00
2023-04-15T12:47:04.023Z,99798.91
2023-04-15T12:50:27.506Z,99794.41
2023-04-15T12:53:29.415Z,99812.38
2023-04-15T12:56:31.835Z,99814.97
2023-04-15T12:59:33.635Z,99821.22
2023-04-15T13:02:36.549Z,99817.78
2023-04-15T13:05:39.818Z,99820.97
2023-04-15T13:08:47.960Z,99824.63
2023-04-15T13:11:57.404Z,99827.13
2023-04-15T13:14:59.214Z,99826.44
2023-04-15T13:18:01.224Z,99821.13
2023-04-15T13:21:05.270Z,99825.56
2023-04-15T13:24:09.688Z,99824.56
2023-04-15T13:27:12.261Z,99822.50
2023-04-15T13:30:38.043Z,99825.59
2023-04-15T13:33:39.897Z,99822.75
2023-04-15T13:37:08.112Z,99831.75
2023-04-15T13:40:13.661Z,99826.91
2023-04-15T13:43:16.206Z,99834.53
2023-04-15T13:46:18.135Z,99832.75
2023-04-15T13:49:19.992Z,99849.69
2023-04-15T13:52:22.356Z,99840.41
2023-04-15T13:55:26.361Z,99853.31
2023-04-15T13:58:28.923Z,99853.59
2023-04-15T14:01:31.105Z,99854.78
2023-04-15T14:04:33.118Z,99860.44
2023-04-15T14:07:35.039Z,99864.03
2023-04-15T14:10:38.554Z,99864.22
2023-04-15T14:13:39.972Z,99879.94
2023-04-15T14:16:41.433Z,99879.06
2023-04-15T14:19:42.926Z,99880.97
2023-04-15T14:22:44.844Z,99886.88
2023-04-15T14:26:08.998Z,99892.09
2023-04-15T14:29:11.140Z,99888.31
2023-04-15T14:32:14.736Z,99897.91
2023-04-15T14:35:17.131Z,99897.22
2023-04-15T14:38:19.141Z,99906.34
2023-04-15T14:41:22.248Z,99913.25
2023-04-15T14:44:24.143Z,99922.97
2023-04-15T14:47:44.029Z,99921.53
2023-04-15T14:50:45.906Z,99928.06
2023-04-15T14:53:47.690Z,99940.69
2023-04-15T14:56:50.706Z,99944.75
2023-04-15T14:59:56.458Z,99946.16
2023-04-15T15:03:01.629Z,99964.16
2023-04-15T15:06:04.052Z,99963.97
2023-04-15T15:09:06.100Z,99978.03
2023-04-15T15:12:07.900Z,99983.88
2023-04-15T15:15:25.003Z,99983.72
2023-04-15T15:18:31.003Z,99994.59
2023-04-15T15:21:32.370Z,100006.63
2023-04-15T15:24:34.145Z,100003.25
2023-04-15T15:27:38.154Z,100009.63
2023-04-15T15:30:40.169Z,100021.63
2023-04-15T15:33:41.974Z,100023.50
2023-04-15T15:37:06.050Z,100026.81
2023-04-15T15:40:08.626Z,100040.19
2023-04-15T15:43:10.211Z,100049.94
2023-04-15T15:46:12.108Z,100050.97
2023-04-15T15:49:13.984Z,100050.41
2023-04-15T15:52:16.300Z,100057.88
2023-04-15T15:55:18.801Z,100066.19
2023-04-15T15:58:20.685Z,100070.56
2023-04-15T16:01:23.353Z,100079.72
2023-04-15T16:04:25.392Z,100086.75
2023-04-15T16:07:27.355Z,100078.06
2023-04-15T16:10:29.177Z,100083.88
2023-04-15T16:13:31.003Z,100086.47
2023-04-15T16:16:32.955Z,100093.56
2023-04-15T16:19:34.777Z,100097.13
2023-04-15T16:22:37.250Z,100103.88
2023-04-15T16:25:39.299Z,100106.53
2023-04-15T16:28:40.818Z,100112.09
2023-04-15T16:31:43.027Z,100116.63
2023-04-15T16:34:45.208Z,100115.16
2023-04-15T16:37:46.984Z,100130.84
2023-04-15T16:40:48.906Z,100127.50
2023-04-15T16:43:52.561Z,100134.66
2023-04-15T16:46:54.461Z,100130.50
2023-04-15T16:49:56.280Z,100144.69
2023-04-15T16:52:58.063Z,100140.88
2023-04-15T16:56:00.040Z,100149.69
2023-04-15T16:59:02.335Z,100149.75
2023-04-15T17:02:04.298Z,100160.25
2023-04-15T17:05:06.753Z,100167.53
2023-04-15T17:08:08.896Z,100164.09
2023-04-15T17:11:11.701Z,100165.19
2023-04-15T17:14:13.523Z,100173.19
2023-04-15T17:17:16.647Z,100176.00
2023-04-15T17:20:18.935Z,100176.75
2023-04-15T17:23:20.400Z,100190.84
2023-04-15T17:26:22.184Z,100197.03
2023-04-15T17:29:24.690Z,100206.34
2023-04-15T17:32:32.029Z,100214.31
2023-04-15T17:35:33.935Z,100207.63
2023-04-15T17:38:35.801Z,100208.66
2023-04-15T17:41:37.578Z,100213.81
2023-04-15T17:44:40.010Z,100217.28
2023-04-15T17:47:41.995Z,100224.69
2023-04-15T17:51:06.397Z,100233.41
2023-04-15T17:54:07.859Z,100240.56
2023-04-15T17:57:09.716Z,100242.16
2023-04-15T18:00:12.182Z,100234.22
2023-04-15T18:03:14.485Z,100248.25
2023-04-15T18:06:17.275Z,100246.38
2023-04-15T18:09:18.650Z,100257.06
2023-04-15T18:12:20.542Z,100249.31
2023-04-15T18:15:21.964Z,100268.03
2023-04-15T18:18:27.925Z,100266.28
2023-04-15T18:21:29.982Z,100261.66
2023-04-15T18:24:31.619Z,100269.88
2023-04-15T18:27:33.762Z,100269.03
2023-04-15T18:30:38.791Z,100278.53
2023-04-15T18:33:41.073Z,100276.81
2023-04-15T18:36:43.114Z,100284.31
2023-04-15T18:39:44.988Z,100291.28
2023-04-15T18:42:46.814Z,100300.09
2023-04-15T18:45:48.302Z,100299.16
2023-04-15T18:48:49.725Z,100304.34
2023-04-15T18:51:51.532Z,100303.78
2023-04-15T18:54:53.914Z,100305.38
2023-04-15T18:57:56.725Z,100308.31
2023-04-15T19:01:10.572Z,100312.75
2023-04-15T19:04:13.509Z,100320.41
2023-04-15T19:07:15.286Z,100329.63
2023-04-15T19:10:20.008Z,100333.25
2023-04-15T19:13:41.184Z,100328.81
2023-04-15T19:16:43.259Z,100332.25
2023-04-15T19:19:48.756Z,100333.50
2023-04-15T19:22:50.180Z,100338.75
2023-04-15T19:25:51.971Z,100338.81
2023-04-15T19:28:56.358Z,100342.25
2023-04-15T19:32:00.833Z,100342.06
2023-04-15T19:35:03.566Z,100349.13
2023-04-15T19:38:05.269Z,100348.31
2023-04-15T19:41:07.113Z,100356.84
2023-04-15T19:44:09.073Z,100362.69
2023-04-15T19:47:11.290Z,100366.28
2023-04-15T19:50:13.236Z,100367.59
2023-04-15T19:53:14.932Z,100373.75
2023-04-15T19:56:16.767Z,100371.78
2023-04-15T19:59:18.620Z,100364.97
2023-04-15T20:02:21.094Z,100369.47
2023-04-15T20:05:23.596Z,100379.16
2023-04-15T20:08:25.429Z,100376.53
2023-04-15T20:12:46.744Z,100376.53
2023-04-15T20:14:52.305Z,100373.84
2023-04-15T20:17:54.852Z,100377.22
2023-04-15T20:20:56.753Z,100371.13
2023-04-15T20:23:58.200Z,100380.06
2023-04-15T20:27:01.032Z,100376.66
2023-04-15T20:30:05.110Z,100382.66
2023-04-15T20:33:07.948Z,100378.09
2023-04-15T20:36:11.131Z,100383.34
2023-04-15T20:39:12.619Z,100386.28
2023-04-15T20:42:14.612Z,100387.31
2023-04-15T20:45:16.587Z,100395.94
2023-04-15T20:48:19.548Z,100398.78
2023-04-15T20:51:21.109Z,100399.84
2023-04-15T20:54:23.041Z,100402.34
2023-04-15T20:57:24.879Z,100398.09
2023-04-15T21:00:27.530Z,100405.09
2023-04-15T21:03:29.273Z,100405.03
2023-04-15T21:06:33.142Z,100410.22
2023-04-15T21:09:34.598Z,100406.66
2023-04-15T21:12:37.662Z,100413.66
2023-04-15T21:16:00.656Z,100420.69
2023-04-15T21:19:02.479Z,100416.91
2023-04-15T21:22:04.908Z,100423.19
2023-04-15T21:25:06.654Z,100423.91
2023-04-15T21:28:08.738Z,100431.00
2023-04-15T21:31:10.584Z,100430.13
2023-04-15T21:34:12.548Z,100437.03
2023-04-15T21:37:35.163Z,100441.44
2023-04-15T21:40:40.890Z,100447.56
2023-04-15T21:44:00.749Z,100443.91
2023-04-15T21:47:02.622Z,100446.38
2023-04-15T21:50:05.247Z,100449.84
2023-04-15T21:53:08.126Z,100454.38
2023-04-15T21:56:10.162Z,100453.50
2023-04-15T21:59:15.039Z,100456.16
2023-04-15T22:02:17.903Z,100461.16
2023-04-15T22:05:19.759Z,100468.13
2023-04-15T22:08:21.213Z,100472.38
2023-04-15T22:11:26.874Z,100469.66
2023-04-15T22:14:29.911Z,100474.28
2023-04-15T22:17:31.717Z,100479.66
2023-04-15T22:20:33.750Z,100473.59
2023-04-15T22:23:35.712Z,100477.94
2023-04-15T22:26:56.641Z,100481.28
2023-04-15T22:29:58.475Z,100484.81
2023-04-15T22:33:00.872Z,100483.19
2023-04-15T22:36:02.857Z,100488.63
2023-04-15T22:39:06.286Z,100492.84
2023-04-15T22:42:08.390Z,100492.09
2023-04-15T22:45:10.120Z,100497.44
2023-04-15T22:48:11.959Z,100498.31
2023-04-15T22:51:20.945Z,100507.09
2023-04-15T22:54:22.840Z,100522.75
2023-04-15T22:57:24.393Z,100508.81
2023-04-15T23:00:26.805Z,100521.09
2023-04-15T23:03:28.419Z,100518.56
2023-04-15T23:06:30.426Z,100512.50
2023-04-15T23:09:32.237Z,100521.28
2023-04-15T23:12:34.186Z,100520.47
2023-04-15T23:15:35.963Z,100522.28
2023-04-15T23:18:37.762Z,100517.13
2023-04-15T23:21:39.538Z,100522.47
2023-04-15T23:24:41.371Z,100532.03
2023-04-15T23:27:43.206Z,100528.69
2023-04-15T23:30:44.972Z,100536.63
2023-04-15T23:33:46.746Z,100536.47
2023-04-15T23:36:48.560Z,100542.59
2023-04-15T23:39:52.742Z,100539.22
2023-04-15T23:42:54.532Z,100540.09
2023-04-15T23:45:56.635Z,100539.16
2023-04-15T23:48:58.460Z,100540.00
2023-04-15T23:52:00.344Z,100539.22
2023-04-15T23:55:02.978Z,100535.88
2023-04-15T23:58:05.837Z,100538.53
